aviador You're here:

KTOL Decoded Metar

TOLEDO in OH, USA
Report Time2017-07-22 23:52:00
UTC Time2017-07-23 00:47:41
Flight Rules vfr VFR
Wind290° at 07 kt
W.Decomp.*RWY 34: 4.9 kt HW 4.9 kt LCW
RWY 25: 4.9 kt HW 4.9 kt RCW
W.Rank290° ranks 12
Current wind is below 290° avg. (8.8)
Visibility9999 m
Phenomena:N/A
Clouds:Broken 055 Hf
Expected CloudBase > 2,400 ft AGL from Temp-Dew spread
Ceiling5,500 ft
Temp28°C (ISA +14)
Dew Point22°C (70% RH)
Heat Index30.7°C
QNH1008 hPa
Density Alt2,861 ft
Elevation689 ft
Report Wrong Elevation
Raw Report
KTOL 222352Z 29007KT 10SM BKN055 28/22 A2977 RMK AO2 SLP075
T02780222 10294 20272 53008=

Extra information for KTOL:More info

Metar Taf Metar & Taf Last 4 Metars F.Rules Stats Wind Profile Meteogram Temp Stats Airport Information Weather charts Add Link Nearby VenuesMetar ALERT Operation Metar Decoded Social comments

AIRNAV info for KTOL